sensor_id;sensor_type;location;lat;lon;timestamp;pressure;altitude;pressure_sealevel;temperature;humidity
55263;BME280;41125;48.752;9.168;2023-08-17T00:00:00;97026.63;;;18.52;100.00
55263;BME280;41125;48.752;9.168;2023-08-17T00:00:35;97034.06;;;18.51;100.00
55263;BME280;41125;48.752;9.168;2023-08-17T00:01:06;97037.59;;;18.52;100.00
55263;BME280;41125;48.752;9.168;2023-08-17T00:01:39;97039.09;;;18.49;100.00
55263;BME280;41125;48.752;9.168;2023-08-17T00:02:10;97031.66;;;18.50;100.00
55263;BME280;41125;48.752;9.168;2023-08-17T00:02:41;97033.59;;;18.49;100.00
55263;BME280;41125;48.752;9.168;2023-08-17T00:03:12;97033.59;;;18.49;100.00
55263;BME280;41125;48.752;9.168;2023-08-17T00:03:46;97036.34;;;18.49;100.00
55263;BME280;41125;48.752;9.168;2023-08-17T00:04:18;97039.09;;;18.49;100.00
55263;BME280;41125;48.752;9.168;2023-08-17T00:04:50;97035.19;;;18.50;100.00
55263;BME280;41125;48.752;9.168;2023-08-17T00:05:22;97036.81;;;18.51;100.00
55263;BME280;41125;48.752;9.168;2023-08-17T00:05:54;97042.28;;;18.51;100.00
55263;BME280;41125;48.752;9.168;2023-08-17T00:06:26;97036.81;;;18.51;100.00
55263;BME280;41125;48.752;9.168;2023-08-17T00:06:58;97043.91;;;18.52;100.00
55263;BME280;41125;48.752;9.168;2023-08-17T00:07:30;97045.50;;;18.53;100.00
55263;BME280;41125;48.752;9.168;2023-08-17T00:08:01;97040.00;;;18.53;100.00
55263;BME280;41125;48.752;9.168;2023-08-17T00:08:34;97046.31;;;18.54;100.00
55263;BME280;41125;48.752;9.168;2023-08-17T00:09:06;97047.12;;;18.54;100.00
55263;BME280;41125;48.752;9.168;2023-08-17T00:09:39;97048.72;;;18.55;100.00
55263;BME280;41125;48.752;9.168;2023-08-17T00:10:12;97044.84;;;18.56;100.00
55263;BME280;41125;48.752;9.168;2023-08-17T00:10:46;97038.53;;;18.56;100.00
55263;BME280;41125;48.752;9.168;2023-08-17T00:11:20;97046.78;;;18.56;100.00
55263;BME280;41125;48.752;9.168;2023-08-17T00:11:52;97044.84;;;18.56;100.00
55263;BME280;41125;48.752;9.168;2023-08-17T00:12:25;97036.59;;;18.56;100.00
55263;BME280;41125;48.752;9.168;2023-08-17T00:12:57;97044.84;;;18.56;100.00
55263;BME280;41125;48.752;9.168;2023-08-17T00:13:29;97039.34;;;18.56;100.00
55263;BME280;41125;48.752;9.168;2023-08-17T00:14:01;97040.12;;;18.57;100.00
55263;BME280;41125;48.752;9.168;2023-08-17T00:14:33;97039.34;;;18.56;100.00
55263;BME280;41125;48.752;9.168;2023-08-17T00:15:07;97038.19;;;18.57;100.00
55263;BME280;41125;48.752;9.168;2023-08-17T00:15:38;97042.53;;;18.58;100.00
55263;BME280;41125;48.752;9.168;2023-08-17T00:16:10;97046.44;;;18.57;100.00
55263;BME280;41125;48.752;9.168;2023-08-17T00:16:42;97041.75;;;18.58;100.00
55263;BME280;41125;48.752;9.168;2023-08-17T00:17:14;97039.78;;;18.58;100.00
55263;BME280;41125;48.752;9.168;2023-08-17T00:17:46;97038.66;;;18.59;100.00
55263;BME280;41125;48.752;9.168;2023-08-17T00:18:17;97034.00;;;18.60;100.00
55263;BME280;41125;48.752;9.168;2023-08-17T00:18:49;97038.34;;;18.61;100.00
55263;BME280;41125;48.752;9.168;2023-08-17T00:19:20;97032.50;;;18.62;100.00
55263;BME280;41125;48.752;9.168;2023-08-17T00:19:51;97036.41;;;18.61;100.00
55263;BME280;41125;48.752;9.168;2023-08-17T00:20:23;97037.19;;;18.62;100.00
55263;BME280;41125;48.752;9.168;2023-08-17T00:20:54;97036.41;;;18.61;100.00
55263;BME280;41125;48.752;9.168;2023-08-17T00:21:25;97035.59;;;18.61;100.00
55263;BME280;41125;48.752;9.168;2023-08-17T00:21:56;97036.41;;;18.61;100.00
55263;BME280;41125;48.752;9.168;2023-08-17T00:22:29;97030.09;;;18.61;100.00
55263;BME280;41125;48.752;9.168;2023-08-17T00:23:00;97030.91;;;18.61;100.00
55263;BME280;41125;48.752;9.168;2023-08-17T00:23:31;97029.31;;;18.60;100.00
55263;BME280;41125;48.752;9.168;2023-08-17T00:24:04;97035.59;;;18.61;100.00
55263;BME280;41125;48.752;9.168;2023-08-17T00:24:35;97030.09;;;18.61;100.00
55263;BME280;41125;48.752;9.168;2023-08-17T00:25:08;97036.41;;;18.61;100.00
55263;BME280;41125;48.752;9.168;2023-08-17T00:25:42;97031.72;;;18.62;100.00
55263;BME280;41125;48.752;9.168;2023-08-17T00:26:13;97037.19;;;18.62;100.00
55263;BME280;41125;48.752;9.168;2023-08-17T00:26:45;97031.72;;;18.62;100.00
55263;BME280;41125;48.752;9.168;2023-08-17T00:27:17;97028.50;;;18.60;100.00
55263;BME280;41125;48.752;9.168;2023-08-17T00:27:49;97034.00;;;18.60;100.00
55263;BME280;41125;48.752;9.168;2023-08-17T00:28:20;97034.78;;;18.60;100.00
55263;BME280;41125;48.752;9.168;2023-08-17T00:28:51;97036.41;;;18.61;100.00
55263;BME280;41125;48.752;9.168;2023-08-17T00:29:24;97029.31;;;18.60;100.00
55263;BME280;41125;48.752;9.168;2023-08-17T00:29:55;97027.66;;;18.59;100.00
55263;BME280;41125;48.752;9.168;2023-08-17T00:30:26;97034.31;;;18.58;100.00
55263;BME280;41125;48.752;9.168;2023-08-17T00:31:00;97028.81;;;18.58;100.00
55263;BME280;41125;48.752;9.168;2023-08-17T00:31:32;97028.81;;;18.58;100.00
55263;BME280;41125;48.752;9.168;2023-08-17T00:32:05;97029.94;;;18.57;100.00
55263;BME280;41125;48.752;9.168;2023-08-17T00:32:37;97018.97;;;18.57;100.00
55263;BME280;41125;48.752;9.168;2023-08-17T00:33:10;97024.44;;;18.57;100.00
55263;BME280;41125;48.752;9.168;2023-08-17T00:33:41;97023.66;;;18.57;100.00
55263;BME280;41125;48.752;9.168;2023-08-17T00:34:13;97013.00;;;18.55;100.00
55263;BME280;41125;48.752;9.168;2023-08-17T00:34:44;97021.25;;;18.55;100.00
55263;BME280;41125;48.752;9.168;2023-08-17T00:35:16;97018.03;;;18.53;100.00
55263;BME280;41125;48.752;9.168;2023-08-17T00:35:48;97020.78;;;18.53;100.00
55263;BME280;41125;48.752;9.168;2023-08-17T00:36:19;97017.56;;;18.51;100.00
55263;BME280;41125;48.752;9.168;2023-08-17T00:36:51;97017.09;;;18.49;100.00
55263;BME280;41125;48.752;9.168;2023-08-17T00:37:23;97016.66;;;18.47;100.00
55263;BME280;41125;48.752;9.168;2023-08-17T00:37:54;97015.03;;;18.46;100.00
55263;BME280;41125;48.752;9.168;2023-08-17T00:38:26;97020.87;;;18.45;100.00
55263;BME280;41125;48.752;9.168;2023-08-17T00:38:59;97025.56;;;18.44;100.00
55263;BME280;41125;48.752;9.168;2023-08-17T00:39:30;97016.53;;;18.43;100.00
55263;BME280;41125;48.752;9.168;2023-08-17T00:40:05;97024.75;;;18.43;100.00
55263;BME280;41125;48.752;9.168;2023-08-17T00:40:41;97019.25;;;18.43;100.00
55263;BME280;41125;48.752;9.168;2023-08-17T00:41:19;97013.19;;;18.38;100.00
55263;BME280;41125;48.752;9.168;2023-08-17T00:41:59;97020.06;;;18.44;100.00
55263;BME280;41125;48.752;9.168;2023-08-17T00:42:30;97020.06;;;18.44;100.00
55263;BME280;41125;48.752;9.168;2023-08-17T00:43:03;97015.38;;;18.45;100.00
55263;BME280;41125;48.752;9.168;2023-08-17T00:43:35;97018.94;;;18.45;100.00
55263;BME280;41125;48.752;9.168;2023-08-17T00:44:07;97017.78;;;18.46;100.00
55263;BME280;41125;48.752;9.168;2023-08-17T00:44:38;97022.13;;;18.47;100.00
55263;BME280;41125;48.752;9.168;2023-08-17T00:45:11;97021.00;;;18.48;100.00
55263;BME280;41125;48.752;9.168;2023-08-17T00:45:45;97015.50;;;18.48;100.00
55263;BME280;41125;48.752;9.168;2023-08-17T00:46:18;97021.00;;;18.48;100.00
55263;BME280;41125;48.752;9.168;2023-08-17T00:46:51;97021.00;;;18.48;100.00
55263;BME280;41125;48.752;9.168;2023-08-17T00:47:25;97021.00;;;18.48;100.00
55263;BME280;41125;48.752;9.168;2023-08-17T00:47:58;97024.88;;;18.47;100.00
55263;BME280;41125;48.752;9.168;2023-08-17T00:48:32;97020.53;;;18.46;100.00
55263;BME280;41125;48.752;9.168;2023-08-17T00:49:07;97016.19;;;18.45;100.00
55263;BME280;41125;48.752;9.168;2023-08-17T00:49:40;97021.69;;;18.45;100.00
55263;BME280;41125;48.752;9.168;2023-08-17T00:50:13;97020.06;;;18.44;100.00
55263;BME280;41125;48.752;9.168;2023-08-17T00:50:50;97018.94;;;18.45;100.00
55263;BME280;41125;48.752;9.168;2023-08-17T00:51:24;97016.19;;;18.45;100.00
55263;BME280;41125;48.752;9.168;2023-08-17T00:51:56;97018.94;;;18.45;100.00
55263;BME280;41125;48.752;9.168;2023-08-17T00:52:30;97012.63;;;18.45;100.00
55263;BME280;41125;48.752;9.168;2023-08-17T00:53:05;97013.78;;;18.43;100.00
55263;BME280;41125;48.752;9.168;2023-08-17T00:53:38;97008.28;;;18.43;100.00
55263;BME280;41125;48.752;9.168;2023-08-17T00:54:11;97012.97;;;18.43;100.00
55263;BME280;41125;48.752;9.168;2023-08-17T00:54:44;97008.63;;;18.42;100.00
55263;BME280;41125;48.752;9.168;2023-08-17T00:55:15;97005.41;;;18.40;100.00
55263;BME280;41125;48.752;9.168;2023-08-17T00:55:48;97002.66;;;18.40;100.00
55263;BME280;41125;48.752;9.168;2023-08-17T00:56:22;97010.56;;;18.41;100.00
55263;BME280;41125;48.752;9.168;2023-08-17T00:56:56;97004.25;;;18.41;100.00
55263;BME280;41125;48.752;9.168;2023-08-17T00:57:29;97000.38;;;18.42;100.00
55263;BME280;41125;48.752;9.168;2023-08-17T00:58:04;97005.87;;;18.42;100.00
55263;BME280;41125;48.752;9.168;2023-08-17T00:58:36;97007.47;;;18.43;100.00
55263;BME280;41125;48.752;9.168;2023-08-17T00:59:09;97001.19;;;18.42;100.00
55263;BME280;41125;48.752;9.168;2023-08-17T00:59:41;97006.66;;;18.42;100.00
55263;BME280;41125;48.752;9.168;2023-08-17T01:00:15;97004.72;;;18.43;100.00
55263;BME280;41125;48.752;9.168;2023-08-17T01:00:50;97003.59;;;18.44;100.00
55263;BME280;41125;48.752;9.168;2023-08-17T01:01:23;96999.69;;;18.45;100.00
55263;BME280;41125;48.752;9.168;2023-08-17T01:01:55;97001.28;;;18.46;100.00
55263;BME280;41125;48.752;9.168;2023-08-17T01:02:31;97008.41;;;18.47;100.00
55263;BME280;41125;48.752;9.168;2023-08-17T01:03:10;97000.63;;;18.49;100.00
55263;BME280;41125;48.752;9.168;2023-08-17T01:03:47;97002.22;;;18.50;100.00
55263;BME280;41125;48.752;9.168;2023-08-17T01:04:19;96996.72;;;18.50;100.00
55263;BME280;41125;48.752;9.168;2023-08-17T01:04:50;96997.53;;;18.51;100.00
55263;BME280;41125;48.752;9.168;2023-08-17T01:05:22;97002.22;;;18.50;100.00
55263;BME280;41125;48.752;9.168;2023-08-17T01:05:54;97004.16;;;18.50;100.00
55263;BME280;41125;48.752;9.168;2023-08-17T01:06:25;96997.87;;;18.49;100.00
55263;BME280;41125;48.752;9.168;2023-08-17T01:06:56;97001.09;;;18.51;100.00
55263;BME280;41125;48.752;9.168;2023-08-17T01:07:29;96999.59;;;18.54;100.00
55263;BME280;41125;48.752;9.168;2023-08-17T01:08:00;96993.75;;;18.55;100.00
55263;BME280;41125;48.752;9.168;2023-08-17T01:08:34;97003.63;;;18.56;100.00
55263;BME280;41125;48.752;9.168;2023-08-17T01:09:07;96996.97;;;18.57;100.00
55263;BME280;41125;48.752;9.168;2023-08-17T01:09:41;96998.56;;;18.58;100.00
55263;BME280;41125;48.752;9.168;2023-08-17T01:10:14;96998.56;;;18.58;100.00
55263;BME280;41125;48.752;9.168;2023-08-17T01:11:59;97000.75;;;18.53;100.00
55263;BME280;41125;48.752;9.168;2023-08-17T01:12:58;97003.94;;;18.55;100.00
55263;BME280;41125;48.752;9.168;2023-08-17T01:13:41;97000.41;;;18.54;100.00
55263;BME280;41125;48.752;9.168;2023-08-17T01:15:37;97002.00;;;18.55;100.00
55263;BME280;41125;48.752;9.168;2023-08-17T01:16:14;97003.94;;;18.55;100.00
55263;BME280;41125;48.752;9.168;2023-08-17T01:16:59;97006.34;;;18.56;100.00
55263;BME280;41125;48.752;9.168;2023-08-17T01:18:10;97007.50;;;18.55;100.00
55263;BME280;41125;48.752;9.168;2023-08-17T01:18:44;97010.25;;;18.55;100.00
55263;BME280;41125;48.752;9.168;2023-08-17T01:19:28;97008.31;;;18.56;100.00
55263;BME280;41125;48.752;9.168;2023-08-17T01:20:03;97004.75;;;18.55;100.00
55263;BME280;41125;48.752;9.168;2023-08-17T01:20:38;97009.09;;;18.56;100.00
55263;BME280;41125;48.752;9.168;2023-08-17T01:21:14;97015.06;;;18.58;100.00
55263;BME280;41125;48.752;9.168;2023-08-17T01:21:51;97014.75;;;18.60;100.00
55263;BME280;41125;48.752;9.168;2023-08-17T01:22:27;97008.91;;;18.61;100.00
55263;BME280;41125;48.752;9.168;2023-08-17T01:23:07;97016.03;;;18.62;100.00
55263;BME280;41125;48.752;9.168;2023-08-17T01:23:38;97012.13;;;18.63;100.00
55263;BME280;41125;48.752;9.168;2023-08-17T01:24:12;97012.13;;;18.63;100.00
55263;BME280;41125;48.752;9.168;2023-08-17T01:24:43;97008.25;;;18.64;100.00
55263;BME280;41125;48.752;9.168;2023-08-17T01:25:16;97007.91;;;18.66;100.00
55263;BME280;41125;48.752;9.168;2023-08-17T01:25:49;97007.56;;;18.67;100.00
55263;BME280;41125;48.752;9.168;2023-08-17T01:26:20;97004.47;;;18.69;100.00
55263;BME280;41125;48.752;9.168;2023-08-17T01:26:52;97003.66;;;18.68;100.00
55263;BME280;41125;48.752;9.168;2023-08-17T01:27:26;97002.88;;;18.68;100.00
55263;BME280;41125;48.752;9.168;2023-08-17T01:27:57;97004.00;;;18.67;100.00
55263;BME280;41125;48.752;9.168;2023-08-17T01:28:32;97009.84;;;18.65;100.00
55263;BME280;41125;48.752;9.168;2023-08-17T01:29:05;97009.84;;;18.65;100.00
55263;BME280;41125;48.752;9.168;2023-08-17T01:29:37;97006.63;;;18.63;100.00
55263;BME280;41125;48.752;9.168;2023-08-17T01:30:13;97008.91;;;18.61;100.00
55263;BME280;41125;48.752;9.168;2023-08-17T01:31:08;97006.03;;;18.58;100.00
55263;BME280;41125;48.752;9.168;2023-08-17T01:32:02;97012.66;;;18.57;100.00
55263;BME280;41125;48.752;9.168;2023-08-17T01:32:50;97005.22;;;18.57;100.00
55263;BME280;41125;48.752;9.168;2023-08-17T01:33:52;97003.28;;;18.58;100.00
55263;BME280;41125;48.752;9.168;2023-08-17T01:34:29;97007.16;;;18.57;100.00
55263;BME280;41125;48.752;9.168;2023-08-17T01:35:48;97007.97;;;18.57;100.00
55263;BME280;41125;48.752;9.168;2023-08-17T01:36:37;97007.97;;;18.57;100.00
55263;BME280;41125;48.752;9.168;2023-08-17T01:37:15;96995.38;;;18.56;100.00
55263;BME280;41125;48.752;9.168;2023-08-17T01:37:51;96996.97;;;18.57;100.00
55263;BME280;41125;48.752;9.168;2023-08-17T01:38:26;97002.47;;;18.57;100.00
55263;BME280;41125;48.752;9.168;2023-08-17T01:39:02;97000.53;;;18.58;100.00
55263;BME280;41125;48.752;9.168;2023-08-17T01:39:39;97004.06;;;18.58;100.00
55263;BME280;41125;48.752;9.168;2023-08-17T01:40:17;96996.97;;;18.57;100.00
55263;BME280;41125;48.752;9.168;2023-08-17T01:40:51;96998.56;;;18.58;100.00
55263;BME280;41125;48.752;9.168;2023-08-17T01:41:27;96993.09;;;18.58;100.00
55263;BME280;41125;48.752;9.168;2023-08-17T01:42:01;96998.56;;;18.58;100.00
55263;BME280;41125;48.752;9.168;2023-08-17T01:42:35;97000.19;;;18.59;100.00
55263;BME280;41125;48.752;9.168;2023-08-17T01:43:10;97000.19;;;18.59;100.00
55263;BME280;41125;48.752;9.168;2023-08-17T01:43:44;97000.19;;;18.59;100.00
55263;BME280;41125;48.752;9.168;2023-08-17T01:44:18;96999.88;;;18.61;100.00
55263;BME280;41125;48.752;9.168;2023-08-17T01:44:52;97003.41;;;18.61;100.00
55263;BME280;41125;48.752;9.168;2023-08-17T01:45:25;96999.53;;;18.62;100.00
55263;BME280;41125;48.752;9.168;2023-08-17T01:45:59;97000.34;;;18.63;100.00
55263;BME280;41125;48.752;9.168;2023-08-17T01:46:34;96994.50;;;18.64;100.00
55263;BME280;41125;48.752;9.168;2023-08-17T01:47:06;96995.63;;;18.63;100.00
55263;BME280;41125;48.752;9.168;2023-08-17T01:47:37;96996.91;;;18.66;100.00
55263;BME280;41125;48.752;9.168;2023-08-17T01:48:10;96998.84;;;18.65;100.00
55263;BME280;41125;48.752;9.168;2023-08-17T01:48:44;96993.34;;;18.65;100.00
55263;BME280;41125;48.752;9.168;2023-08-17T01:49:17;96990.59;;;18.65;100.00
55263;BME280;41125;48.752;9.168;2023-08-17T01:49:49;96995.31;;;18.65;100.00
55263;BME280;41125;48.752;9.168;2023-08-17T01:50:22;96990.94;;;18.64;100.00
55263;BME280;41125;48.752;9.168;2023-08-17T01:50:53;96995.63;;;18.63;100.00
55263;BME280;41125;48.752;9.168;2023-08-17T01:51:25;96995.63;;;18.63;100.00
55263;BME280;41125;48.752;9.168;2023-08-17T01:51:57;97000.00;;;18.64;100.00
55263;BME280;41125;48.752;9.168;2023-08-17T01:52:30;96997.25;;;18.64;100.00
55263;BME280;41125;48.752;9.168;2023-08-17T01:53:04;96998.06;;;18.65;100.00
55263;BME280;41125;48.752;9.168;2023-08-17T01:53:35;96998.84;;;18.65;100.00
55263;BME280;41125;48.752;9.168;2023-08-17T01:54:09;97003.53;;;18.65;100.00
55263;BME280;41125;48.752;9.168;2023-08-17T01:54:40;97004.69;;;18.64;100.00
55263;BME280;41125;48.752;9.168;2023-08-17T01:55:12;96998.37;;;18.63;100.00
55263;BME280;41125;48.752;9.168;2023-08-17T01:55:43;97002.75;;;18.64;100.00
55263;BME280;41125;48.752;9.168;2023-08-17T01:56:14;97002.75;;;18.64;100.00
55263;BME280;41125;48.752;9.168;2023-08-17T01:56:46;96997.25;;;18.64;100.00
55263;BME280;41125;48.752;9.168;2023-08-17T01:57:18;97001.12;;;18.63;100.00
55263;BME280;41125;48.752;9.168;2023-08-17T01:57:49;96995.63;;;18.63;100.00
55263;BME280;41125;48.752;9.168;2023-08-17T01:58:20;96997.59;;;18.63;100.00
55263;BME280;41125;48.752;9.168;2023-08-17T01:58:52;97002.28;;;18.62;100.00
55263;BME280;41125;48.752;9.168;2023-08-17T01:59:23;96999.53;;;18.62;100.00
55263;BME280;41125;48.752;9.168;2023-08-17T01:59:54;96999.53;;;18.62;100.00
55263;BME280;41125;48.752;9.168;2023-08-17T02:00:27;97003.09;;;18.63;100.00
55263;BME280;41125;48.752;9.168;2023-08-17T02:00:59;96995.63;;;18.63;100.00
55263;BME280;41125;48.752;9.168;2023-08-17T02:01:30;97001.94;;;18.64;100.00
55263;BME280;41125;48.752;9.168;2023-08-17T02:02:03;97001.12;;;18.63;100.00
55263;BME280;41125;48.752;9.168;2023-08-17T02:02:35;97001.94;;;18.64;100.00
55263;BME280;41125;48.752;9.168;2023-08-17T02:03:06;97004.34;;;18.65;100.00
55263;BME280;41125;48.752;9.168;2023-08-17T02:03:37;96996.31;;;18.60;100.00
55263;BME280;41125;48.752;9.168;2023-08-17T02:04:10;96997.25;;;18.64;100.00
55263;BME280;41125;48.752;9.168;2023-08-17T02:04:42;96998.84;;;18.65;100.00
55263;BME280;41125;48.752;9.168;2023-08-17T02:05:13;96997.72;;;18.66;100.00
55263;BME280;41125;48.752;9.168;2023-08-17T02:05:46;96996.56;;;18.67;100.00
55263;BME280;41125;48.752;9.168;2023-08-17T02:06:17;96987.53;;;18.67;100.00
55263;BME280;41125;48.752;9.168;2023-08-17T02:06:48;97004.81;;;18.67;100.00
55263;BME280;41125;48.752;9.168;2023-08-17T02:07:19;96996.56;;;18.67;100.00
55263;BME280;41125;48.752;9.168;2023-08-17T02:07:51;97002.06;;;18.67;100.00
55263;BME280;41125;48.752;9.168;2023-08-17T02:08:26;96996.56;;;18.67;100.00
55263;BME280;41125;48.752;9.168;2023-08-17T02:08:59;96995.75;;;18.67;100.00
55263;BME280;41125;48.752;9.168;2023-08-17T02:09:30;96996.56;;;18.67;100.00
55263;BME280;41125;48.752;9.168;2023-08-17T02:10:01;96997.37;;;18.68;100.00
55263;BME280;41125;48.752;9.168;2023-08-17T02:10:32;97000.91;;;18.68;100.00
55263;BME280;41125;48.752;9.168;2023-08-17T02:11:04;97002.06;;;18.67;100.00
55263;BME280;41125;48.752;9.168;2023-08-17T02:11:35;96993.81;;;18.67;100.00
55263;BME280;41125;48.752;9.168;2023-08-17T02:12:07;96998.50;;;18.67;100.00
55263;BME280;41125;48.752;9.168;2023-08-17T02:12:40;96993.81;;;18.67;100.00
55263;BME280;41125;48.752;9.168;2023-08-17T02:13:12;96991.06;;;18.67;100.00
55263;BME280;41125;48.752;9.168;2023-08-17T02:13:44;96991.06;;;18.67;100.00
55263;BME280;41125;48.752;9.168;2023-08-17T02:14:15;96990.25;;;18.67;100.00
55263;BME280;41125;48.752;9.168;2023-08-17T02:14:48;96983.97;;;18.66;100.00
55263;BME280;41125;48.752;9.168;2023-08-17T02:15:22;96986.72;;;18.66;100.00
55263;BME280;41125;48.752;9.168;2023-08-17T02:15:55;96985.91;;;18.66;100.00
55263;BME280;41125;48.752;9.168;2023-08-17T02:16:27;96983.16;;;18.66;100.00
55263;BME280;41125;48.752;9.168;2023-08-17T02:16:58;96983.97;;;18.66;100.00
55263;BME280;41125;48.752;9.168;2023-08-17T02:17:29;96984.78;;;18.67;100.00
55263;BME280;41125;48.752;9.168;2023-08-17T02:18:03;96983.16;;;18.66;100.00
55263;BME280;41125;48.752;9.168;2023-08-17T02:18:35;96983.97;;;18.66;100.00
55263;BME280;41125;48.752;9.168;2023-08-17T02:19:07;96983.97;;;18.66;100.00
55263;BME280;41125;48.752;9.168;2023-08-17T02:19:40;96984.78;;;18.67;100.00
55263;BME280;41125;48.752;9.168;2023-08-17T02:20:11;96982.81;;;18.67;100.00
55263;BME280;41125;48.752;9.168;2023-08-17T02:20:46;96980.06;;;18.67;100.00
55263;BME280;41125;48.752;9.168;2023-08-17T02:21:17;96977.66;;;18.66;100.00
55263;BME280;41125;48.752;9.168;2023-08-17T02:21:48;96976.88;;;18.65;100.00
55263;BME280;41125;48.752;9.168;2023-08-17T02:22:20;96981.56;;;18.65;100.00
55263;BME280;41125;48.752;9.168;2023-08-17T02:22:51;96970.56;;;18.65;100.00
55263;BME280;41125;48.752;9.168;2023-08-17T02:23:22;96983.97;;;18.66;100.00
55263;BME280;41125;48.752;9.168;2023-08-17T02:23:54;96975.72;;;18.66;100.00
55263;BME280;41125;48.752;9.168;2023-08-17T02:24:26;96981.22;;;18.66;100.00
55263;BME280;41125;48.752;9.168;2023-08-17T02:24:57;96972.16;;;18.66;100.00
55263;BME280;41125;48.752;9.168;2023-08-17T02:25:32;96976.88;;;18.65;100.00
55263;BME280;41125;48.752;9.168;2023-08-17T02:26:07;96960.09;;;18.58;100.00
55263;BME280;41125;48.752;9.168;2023-08-17T02:26:42;96978.00;;;18.64;100.00
55263;BME280;41125;48.752;9.168;2023-08-17T02:27:13;96969.75;;;18.64;100.00
55263;BME280;41125;48.752;9.168;2023-08-17T02:27:44;96974.47;;;18.64;100.00
55263;BME280;41125;48.752;9.168;2023-08-17T02:28:15;96981.09;;;18.63;100.00
55263;BME280;41125;48.752;9.168;2023-08-17T02:28:48;96977.53;;;18.62;100.00
55263;BME280;41125;48.752;9.168;2023-08-17T02:29:19;96982.59;;;18.60;100.00
55263;BME280;41125;48.752;9.168;2023-08-17T02:29:50;96974.34;;;18.60;100.00
55263;BME280;41125;48.752;9.168;2023-08-17T02:30:22;96977.09;;;18.60;100.00
55263;BME280;41125;48.752;9.168;2023-08-17T02:30:58;96981.28;;;18.58;100.00
55263;BME280;41125;48.752;9.168;2023-08-17T02:31:31;96979.34;;;18.58;100.00
55263;BME280;41125;48.752;9.168;2023-08-17T02:32:05;96973.53;;;18.60;100.00
55263;BME280;41125;48.752;9.168;2023-08-17T02:32:37;96973.19;;;18.61;100.00
55263;BME280;41125;48.752;9.168;2023-08-17T02:33:08;96979.50;;;18.62;100.00
55263;BME280;41125;48.752;9.168;2023-08-17T02:33:39;96975.94;;;18.61;100.00
55263;BME280;41125;48.752;9.168;2023-08-17T02:34:11;96979.84;;;18.60;100.00
55263;BME280;41125;48.752;9.168;2023-08-17T02:34:45;96979.84;;;18.60;100.00
55263;BME280;41125;48.752;9.168;2023-08-17T02:35:19;96972.69;;;18.59;100.00
55263;BME280;41125;48.752;9.168;2023-08-17T02:35:52;96982.91;;;18.59;100.00
55263;BME280;41125;48.752;9.168;2023-08-17T02:36:26;96971.09;;;18.58;100.00
55263;BME280;41125;48.752;9.168;2023-08-17T02:36:59;96975.00;;;18.57;100.00
55263;BME280;41125;48.752;9.168;2023-08-17T02:37:32;96972.25;;;18.57;100.00
55263;BME280;41125;48.752;9.168;2023-08-17T02:38:05;96978.53;;;18.58;100.00
55263;BME280;41125;48.752;9.168;2023-08-17T02:38:37;96976.59;;;18.58;100.00
55263;BME280;41125;48.752;9.168;2023-08-17T02:39:10;96977.75;;;18.57;100.00
55263;BME280;41125;48.752;9.168;2023-08-17T02:39:44;96967.31;;;18.51;100.00
55263;BME280;41125;48.752;9.168;2023-08-17T02:40:17;96961.00;;;18.50;100.00
55263;BME280;41125;48.752;9.168;2023-08-17T02:40:49;96980.50;;;18.57;100.00
55263;BME280;41125;48.752;9.168;2023-08-17T02:41:22;96977.75;;;18.57;100.00
55263;BME280;41125;48.752;9.168;2023-08-17T02:41:53;96970.62;;;18.56;100.00
55263;BME280;41125;48.752;9.168;2023-08-17T02:42:24;96971.78;;;18.55;100.00
55263;BME280;41125;48.752;9.168;2023-08-17T02:42:56;96971.78;;;18.55;100.00
55263;BME280;41125;48.752;9.168;2023-08-17T02:43:27;96971.78;;;18.55;100.00
55263;BME280;41125;48.752;9.168;2023-08-17T02:44:01;96971.78;;;18.55;100.00
55263;BME280;41125;48.752;9.168;2023-08-17T02:44:33;96971.78;;;18.55;100.00
55263;BME280;41125;48.752;9.168;2023-08-17T02:45:09;96969.84;;;18.56;100.00
55263;BME280;41125;48.752;9.168;2023-08-17T02:45:41;96960.78;;;18.55;100.00
55263;BME280;41125;48.752;9.168;2023-08-17T02:46:12;96973.38;;;18.56;100.00
55263;BME280;41125;48.752;9.168;2023-08-17T02:46:43;96970.62;;;18.56;100.00
55263;BME280;41125;48.752;9.168;2023-08-17T02:47:14;96971.44;;;18.57;100.00
55263;BME280;41125;48.752;9.168;2023-08-17T02:47:46;96970.62;;;18.56;100.00
55263;BME280;41125;48.752;9.168;2023-08-17T02:48:18;96964.00;;;18.57;100.00
55263;BME280;41125;48.752;9.168;2023-08-17T02:48:50;96963.19;;;18.57;100.00
55263;BME280;41125;48.752;9.168;2023-08-17T02:49:22;96965.16;;;18.56;100.00
55263;BME280;41125;48.752;9.168;2023-08-17T02:49:55;96965.16;;;18.56;100.00
55263;BME280;41125;48.752;9.168;2023-08-17T02:50:26;96967.87;;;18.56;100.00
55263;BME280;41125;48.752;9.168;2023-08-17T02:50:58;96967.87;;;18.56;100.00
55263;BME280;41125;48.752;9.168;2023-08-17T02:51:29;96961.59;;;18.56;100.00
55263;BME280;41125;48.752;9.168;2023-08-17T02:52:00;96964.00;;;18.57;100.00
55263;BME280;41125;48.752;9.168;2023-08-17T02:52:31;96956.09;;;18.56;100.00
55263;BME280;41125;48.752;9.168;2023-08-17T02:53:04;96971.78;;;18.55;100.00
55263;BME280;41125;48.752;9.168;2023-08-17T02:53:35;96960.78;;;18.55;100.00
55263;BME280;41125;48.752;9.168;2023-08-17T02:54:08;96962.41;;;18.56;100.00
55263;BME280;41125;48.752;9.168;2023-08-17T02:54:39;96967.87;;;18.56;100.00
55263;BME280;41125;48.752;9.168;2023-08-17T02:55:10;96967.87;;;18.56;100.00
55263;BME280;41125;48.752;9.168;2023-08-17T02:55:41;96966.28;;;18.55;100.00
55263;BME280;41125;48.752;9.168;2023-08-17T02:56:12;96963.53;;;18.55;100.00
55263;BME280;41125;48.752;9.168;2023-08-17T02:56:44;96971.78;;;18.55;100.00
55263;BME280;41125;48.752;9.168;2023-08-17T02:57:15;96963.88;;;18.54;100.00